createdAt,value
2023-04-09T00:00:00.287Z,49.90
2023-04-09T00:01:00.257Z,50.70
2023-04-09T00:02:00.282Z,48.80
2023-04-09T00:03:00.302Z,49.20
2023-04-09T00:04:00.328Z,48.90
2023-04-09T00:05:00.213Z,50.90
2023-04-09T00:06:00.171Z,51.30
2023-04-09T00:07:00.276Z,48.40
2023-04-09T00:08:00.161Z,51.80
2023-04-09T00:09:00.151Z,47.00
2023-04-09T00:10:00.132Z,47.10
2023-04-09T00:11:00.143Z,48.60
2023-04-09T00:12:00.126Z,48.70
2023-04-09T00:13:00.095Z,48.70
2023-04-09T00:14:00.086Z,48.00
2023-04-09T00:15:00.050Z,47.90
2023-04-09T00:16:00.081Z,50.00
2023-04-09T00:17:00.043Z,51.00
2023-04-09T00:18:00.146Z,53.00
2023-04-09T00:19:00.008Z,50.60
2023-04-09T00:19:59.998Z,49.30
2023-04-09T00:20:59.984Z,50.10
2023-04-09T00:21:59.990Z,49.30
2023-04-09T00:22:59.966Z,49.50
2023-04-09T00:23:59.982Z,49.80
2023-04-09T00:24:59.938Z,49.90
2023-04-09T00:25:59.923Z,48.20
2023-04-09T00:26:59.903Z,47.80
2023-04-09T00:27:59.911Z,51.50
2023-04-09T00:28:59.900Z,51.50
2023-04-09T00:29:59.876Z,52.70
2023-04-09T00:30:59.871Z,51.60
2023-04-09T00:31:59.889Z,49.70
2023-04-09T00:32:59.864Z,51.10
2023-04-09T00:33:59.846Z,53.10
2023-04-09T00:34:59.818Z,51.80
2023-04-09T00:35:59.834Z,52.50
2023-04-09T00:36:59.776Z,52.30
2023-04-09T00:37:59.781Z,53.80
2023-04-09T00:38:59.770Z,51.60
2023-04-09T00:39:59.793Z,52.20
2023-04-09T00:40:59.728Z,51.70
2023-04-09T00:41:59.745Z,51.60
2023-04-09T00:42:59.715Z,52.20
2023-04-09T00:43:59.723Z,52.30
2023-04-09T00:44:59.699Z,51.60
2023-04-09T00:45:59.758Z,49.50
2023-04-09T00:46:59.677Z,50.70
2023-04-09T00:47:59.656Z,51.50
2023-04-09T00:48:59.651Z,53.90
2023-04-09T00:49:59.644Z,52.40
2023-04-09T00:50:59.610Z,51.30
2023-04-09T00:51:59.609Z,52.30
2023-04-09T00:52:59.589Z,50.00
2023-04-09T00:53:59.582Z,49.80
2023-04-09T00:54:59.589Z,52.90
2023-04-09T00:55:59.547Z,52.40
2023-04-09T00:56:59.534Z,50.90
2023-04-09T00:57:59.548Z,55.20
2023-04-09T00:58:59.526Z,54.00
2023-04-09T00:59:59.509Z,53.20
2023-04-09T01:00:59.512Z,52.20
2023-04-09T01:01:59.533Z,53.30
2023-04-09T01:02:59.534Z,53.80
2023-04-09T01:03:59.471Z,53.20
2023-04-09T01:04:59.441Z,49.70
2023-04-09T01:05:59.444Z,52.00
2023-04-09T01:06:59.421Z,53.90
2023-04-09T01:07:59.402Z,53.90
2023-04-09T01:08:59.406Z,50.90
2023-04-09T01:09:59.357Z,53.60
2023-04-09T01:10:59.380Z,52.90
2023-04-09T01:11:59.342Z,53.40
2023-04-09T01:12:59.356Z,55.40
2023-04-09T01:13:59.324Z,56.00
2023-04-09T01:14:59.293Z,58.40
2023-04-09T01:15:59.303Z,57.40
2023-04-09T01:16:59.349Z,55.90
2023-04-09T01:17:59.329Z,53.80
2023-04-09T01:18:59.236Z,54.70
2023-04-09T01:19:59.252Z,58.50
2023-04-09T01:20:59.240Z,56.30
2023-04-09T01:21:59.208Z,53.90
2023-04-09T01:22:59.400Z,52.60
2023-04-09T01:23:59.214Z,57.40
2023-04-09T01:24:59.157Z,58.80
2023-04-09T01:25:59.158Z,59.60
2023-04-09T01:26:59.145Z,58.30
2023-04-09T01:27:59.144Z,56.30
2023-04-09T01:28:59.124Z,56.80
2023-04-09T01:29:59.104Z,55.20
2023-04-09T01:30:59.164Z,56.40
2023-04-09T01:31:59.109Z,55.70
2023-04-09T01:32:59.109Z,56.20
2023-04-09T01:33:59.079Z,57.10
2023-04-09T01:34:59.037Z,58.60
2023-04-09T01:35:59.069Z,57.70
2023-04-09T01:36:59.048Z,56.70
2023-04-09T01:37:59.004Z,53.60
2023-04-09T01:38:59.042Z,56.30
2023-04-09T01:39:58.996Z,55.60
2023-04-09T01:40:58.979Z,55.80
2023-04-09T01:41:58.947Z,57.10
2023-04-09T01:42:58.978Z,56.80
2023-04-09T01:43:58.950Z,55.90
2023-04-09T01:44:58.939Z,53.50
2023-04-09T01:45:58.912Z,54.00
2023-04-09T01:46:58.904Z,54.80
2023-04-09T01:47:58.920Z,55.80
2023-04-09T01:48:58.919Z,57.50
2023-04-09T01:49:58.872Z,57.20
2023-04-09T01:50:58.848Z,57.40
2023-04-09T01:51:58.814Z,54.20
2023-04-09T01:52:58.809Z,51.80
2023-04-09T01:53:58.789Z,56.30
2023-04-09T01:54:58.819Z,56.70
2023-04-09T01:55:58.798Z,56.50
2023-04-09T01:56:58.781Z,58.20
2023-04-09T01:57:58.738Z,60.40
2023-04-09T01:58:58.752Z,58.50
2023-04-09T01:59:58.716Z,58.90
2023-04-09T02:00:58.739Z,56.70
2023-04-09T02:01:58.783Z,55.60
2023-04-09T02:02:58.829Z,56.20
2023-04-09T02:03:58.859Z,56.90
2023-04-09T02:04:58.693Z,56.20
2023-04-09T02:05:58.660Z,56.30
2023-04-09T02:06:58.648Z,56.30
2023-04-09T02:07:58.614Z,55.60
2023-04-09T02:08:58.623Z,53.90
2023-04-09T02:09:58.612Z,54.90
2023-04-09T02:10:58.603Z,52.90
2023-04-09T02:11:58.571Z,53.40
2023-04-09T02:12:58.558Z,55.40
2023-04-09T02:13:58.551Z,56.90
2023-04-09T02:14:58.547Z,55.40
2023-04-09T02:15:58.562Z,55.70
2023-04-09T02:16:58.534Z,56.10
2023-04-09T02:17:58.559Z,55.50
2023-04-09T02:18:58.507Z,58.20
2023-04-09T02:19:58.476Z,54.90
2023-04-09T02:20:58.462Z,55.50
2023-04-09T02:21:58.460Z,55.50
2023-04-09T02:22:58.435Z,55.70
2023-04-09T02:23:58.430Z,55.20
2023-04-09T02:24:58.425Z,54.90
2023-04-09T02:25:58.408Z,56.30
2023-04-09T02:26:58.406Z,55.80
2023-04-09T02:27:58.376Z,57.20
2023-04-09T02:28:58.372Z,58.10
2023-04-09T02:29:58.372Z,57.10
2023-04-09T02:30:58.361Z,59.50
2023-04-09T02:31:58.331Z,58.20
2023-04-09T02:32:58.337Z,58.00
2023-04-09T02:33:58.323Z,60.30
2023-04-09T02:34:58.266Z,55.40
2023-04-09T02:35:58.288Z,59.70
2023-04-09T02:36:58.266Z,56.40
2023-04-09T02:37:58.255Z,55.20
2023-04-09T02:38:58.236Z,55.70
2023-04-09T02:39:58.208Z,51.90
2023-04-09T02:40:58.205Z,55.20
2023-04-09T02:41:58.198Z,53.00
2023-04-09T02:42:58.193Z,53.20
2023-04-09T02:43:58.153Z,57.20
2023-04-09T02:44:58.182Z,53.90
2023-04-09T02:45:58.133Z,53.60
2023-04-09T02:46:58.137Z,51.90
2023-04-09T02:47:58.125Z,53.90
2023-04-09T02:48:58.128Z,54.50
2023-04-09T02:49:58.129Z,54.30
2023-04-09T02:50:58.072Z,55.10
2023-04-09T02:51:58.068Z,53.40
2023-04-09T02:52:58.046Z,53.40
2023-04-09T02:53:58.046Z,54.00
2023-04-09T02:54:58.049Z,55.90
2023-04-09T02:55:58.051Z,54.80
2023-04-09T02:56:57.997Z,54.10
2023-04-09T02:57:57.968Z,54.00
2023-04-09T02:58:57.970Z,55.20
2023-04-09T02:59:57.965Z,55.70
2023-04-09T03:00:57.947Z,55.30
2023-04-09T03:01:57.982Z,55.10
2023-04-09T03:02:58.085Z,54.10
2023-04-09T03:03:58.053Z,54.80
2023-04-09T03:04:57.905Z,55.40
2023-04-09T03:05:57.885Z,54.70
2023-04-09T03:06:57.878Z,53.60
2023-04-09T03:07:57.872Z,53.10
2023-04-09T03:08:57.857Z,53.60
2023-04-09T03:09:57.831Z,53.70
2023-04-09T03:10:57.835Z,52.20
2023-04-09T03:11:57.812Z,53.70
2023-04-09T03:12:57.796Z,54.50
2023-04-09T03:13:57.768Z,55.90
2023-04-09T03:14:57.785Z,57.60
2023-04-09T03:15:57.786Z,55.60
2023-04-09T03:16:57.749Z,57.90
2023-04-09T03:17:57.777Z,56.40
2023-04-09T03:18:57.739Z,55.70
2023-04-09T03:19:57.726Z,53.90
2023-04-09T03:20:57.688Z,56.80
2023-04-09T03:21:57.686Z,56.20
2023-04-09T03:22:57.689Z,53.60
2023-04-09T03:23:57.686Z,57.70
2023-04-09T03:24:57.652Z,57.00
2023-04-09T03:25:57.657Z,57.30
2023-04-09T03:26:57.650Z,55.90
2023-04-09T03:27:57.607Z,58.40
2023-04-09T03:28:57.624Z,53.80
2023-04-09T03:29:57.593Z,54.70
2023-04-09T03:30:57.623Z,55.10
2023-04-09T03:31:57.561Z,55.40
2023-04-09T03:32:57.562Z,54.90
2023-04-09T03:33:57.573Z,53.20
2023-04-09T03:34:57.542Z,54.40
2023-04-09T03:35:57.524Z,57.00
2023-04-09T03:36:57.532Z,55.00
2023-04-09T03:37:57.462Z,58.00
2023-04-09T03:38:57.491Z,57.20
2023-04-09T03:39:57.475Z,56.20
2023-04-09T03:40:57.471Z,53.90
2023-04-09T03:41:57.414Z,56.70
2023-04-09T03:42:57.436Z,55.60
2023-04-09T03:43:57.405Z,54.70
2023-04-09T03:44:57.401Z,54.70
2023-04-09T03:45:57.401Z,55.90
2023-04-09T03:46:57.518Z,55.40
2023-04-09T03:47:58.026Z,58.10
2023-04-09T03:48:57.347Z,55.10
2023-04-09T03:49:57.332Z,53.60
2023-04-09T03:50:57.307Z,53.40
2023-04-09T03:51:57.302Z,56.10
2023-04-09T03:52:57.318Z,55.30
2023-04-09T03:53:57.279Z,54.30
2023-04-09T03:54:57.300Z,55.10
2023-04-09T03:55:57.265Z,54.90
2023-04-09T03:56:57.260Z,54.10
2023-04-09T03:57:57.229Z,53.40
2023-04-09T03:58:57.266Z,52.20
2023-04-09T03:59:57.204Z,53.60
2023-04-09T04:00:57.184Z,55.10
2023-04-09T04:01:57.295Z,55.50
2023-04-09T04:02:57.309Z,53.60
2023-04-09T04:03:57.287Z,56.90
2023-04-09T04:04:57.179Z,56.20
2023-04-09T04:05:57.206Z,55.30
2023-04-09T04:06:57.165Z,54.20
2023-04-09T04:07:57.178Z,54.10
2023-04-09T04:08:57.138Z,53.60
2023-04-09T04:09:57.130Z,52.20
2023-04-09T04:10:57.128Z,54.20
2023-04-09T04:11:57.086Z,54.80
2023-04-09T04:12:57.106Z,54.40
2023-04-09T04:13:57.081Z,54.20
2023-04-09T04:14:57.230Z,54.60
2023-04-09T04:15:57.026Z,56.00
2023-04-09T04:16:56.989Z,56.20
2023-04-09T04:17:57.099Z,56.30
2023-04-09T04:18:56.981Z,54.80
2023-04-09T04:19:56.941Z,55.00
2023-04-09T04:20:56.949Z,53.40
2023-04-09T04:21:56.943Z,54.20
2023-04-09T04:22:56.942Z,54.70
2023-04-09T04:23:56.988Z,54.30
2023-04-09T04:24:56.909Z,54.50
2023-04-09T04:25:56.920Z,53.80
2023-04-09T04:26:56.862Z,53.30
2023-04-09T04:27:56.874Z,52.90
2023-04-09T04:28:56.894Z,54.50
2023-04-09T04:29:56.862Z,53.40
2023-04-09T04:30:56.818Z,53.50
2023-04-09T04:31:56.878Z,54.40
2023-04-09T04:32:56.855Z,55.30
2023-04-09T04:33:56.744Z,54.70
2023-04-09T04:34:56.801Z,54.70
2023-04-09T04:35:56.741Z,55.30
2023-04-09T04:36:56.745Z,54.00
2023-04-09T04:37:56.723Z,54.80
2023-04-09T04:38:56.700Z,53.50
2023-04-09T04:39:56.692Z,54.10
2023-04-09T04:40:56.673Z,54.40
2023-04-09T04:41:56.670Z,52.10
2023-04-09T04:42:56.645Z,51.00
2023-04-09T04:43:56.673Z,50.80
2023-04-09T04:44:56.617Z,49.90
2023-04-09T04:45:56.659Z,50.30
2023-04-09T04:46:56.629Z,50.20
2023-04-09T04:47:56.653Z,52.30
2023-04-09T04:48:56.629Z,54.00
2023-04-09T04:49:56.572Z,54.90
2023-04-09T04:50:56.541Z,53.80
2023-04-09T04:51:56.528Z,52.90
2023-04-09T04:52:56.557Z,53.40
2023-04-09T04:53:56.499Z,51.80
2023-04-09T04:54:56.483Z,54.40
2023-04-09T04:55:56.489Z,51.40
2023-04-09T04:56:56.486Z,52.00
2023-04-09T04:57:56.502Z,50.90
2023-04-09T04:58:56.463Z,51.20
2023-04-09T04:59:56.441Z,52.60
2023-04-09T05:00:56.471Z,50.70
2023-04-09T05:01:56.503Z,49.40
2023-04-09T05:02:56.608Z,54.20
2023-04-09T05:03:56.580Z,52.80
2023-04-09T05:04:56.367Z,54.60
2023-04-09T05:05:56.365Z,52.30
2023-04-09T05:06:56.344Z,53.90
2023-04-09T05:07:56.343Z,52.70
2023-04-09T05:08:56.331Z,52.90
2023-04-09T05:09:56.312Z,51.00
2023-04-09T05:10:56.313Z,54.70
2023-04-09T05:11:56.270Z,54.10
2023-04-09T05:12:56.263Z,50.90
2023-04-09T05:13:56.259Z,51.30
2023-04-09T05:14:56.279Z,54.10
2023-04-09T05:15:56.244Z,50.80
2023-04-09T05:16:56.397Z,55.30
2023-04-09T05:17:56.232Z,57.20
2023-04-09T05:18:56.277Z,57.60
2023-04-09T05:19:56.174Z,57.20
2023-04-09T05:20:56.167Z,59.00
2023-04-09T05:21:56.135Z,59.40
2023-04-09T05:22:56.173Z,60.70
2023-04-09T05:23:56.115Z,62.00
2023-04-09T05:24:56.120Z,62.00
2023-04-09T05:25:56.072Z,60.90
2023-04-09T05:26:56.114Z,64.60
2023-04-09T05:27:56.078Z,61.60
2023-04-09T05:28:56.071Z,61.80
2023-04-09T05:29:56.050Z,60.80
2023-04-09T05:30:56.127Z,59.20
2023-04-09T05:31:56.026Z,59.80
2023-04-09T05:32:56.051Z,57.70
2023-04-09T05:33:56.003Z,56.10
2023-04-09T05:34:56.006Z,56.40
2023-04-09T05:35:55.979Z,57.70
2023-04-09T05:36:55.960Z,56.10
2023-04-09T05:37:55.967Z,57.10
2023-04-09T05:38:57.139Z,57.20
2023-04-09T05:39:55.899Z,56.50
2023-04-09T05:40:55.925Z,55.50
2023-04-09T05:41:55.943Z,58.00
2023-04-09T05:42:55.911Z,60.10
2023-04-09T05:43:55.861Z,61.90
2023-04-09T05:44:55.871Z,61.00
2023-04-09T05:45:55.897Z,69.40
2023-04-09T05:46:55.850Z,64.40
2023-04-09T05:47:55.887Z,61.10
2023-04-09T05:48:55.810Z,66.10
2023-04-09T05:49:55.812Z,60.30
2023-04-09T05:50:56.130Z,62.70
2023-04-09T05:51:55.785Z,62.90
2023-04-09T05:52:55.762Z,65.10
2023-04-09T05:53:55.756Z,63.00
2023-04-09T05:54:55.744Z,61.10
2023-04-09T05:55:55.714Z,62.90
2023-04-09T05:56:55.688Z,65.20
2023-04-09T05:57:55.693Z,71.00
2023-04-09T05:58:55.656Z,66.40
2023-04-09T05:59:55.668Z,61.70
2023-04-09T06:00:55.646Z,64.60
2023-04-09T06:01:55.754Z,75.70
2023-04-09T06:02:55.731Z,69.20
2023-04-09T06:03:58.067Z,72.30
2023-04-09T06:04:55.650Z,77.40
2023-04-09T06:05:55.591Z,74.50
2023-04-09T06:06:55.595Z,75.20
2023-04-09T06:07:55.558Z,82.00
2023-04-09T06:08:55.579Z,69.00
2023-04-09T06:09:55.559Z,77.50
2023-04-09T06:10:55.506Z,69.10
2023-04-09T06:11:55.530Z,71.10
2023-04-09T06:12:55.503Z,73.30
2023-04-09T06:13:55.481Z,75.80
2023-04-09T06:14:55.488Z,69.10
2023-04-09T06:15:55.526Z,75.30
2023-04-09T06:16:55.445Z,72.10
2023-04-09T06:17:57.477Z,70.20
2023-04-09T06:18:55.401Z,66.90
2023-04-09T06:19:55.422Z,64.70
2023-04-09T06:20:55.375Z,68.10
2023-04-09T06:21:55.392Z,66.00
2023-04-09T06:22:55.358Z,62.90
2023-04-09T06:23:55.364Z,62.30
2023-04-09T06:24:55.330Z,62.10
2023-04-09T06:25:55.338Z,59.20
2023-04-09T06:26:55.331Z,58.80
2023-04-09T06:27:55.298Z,60.10
2023-04-09T06:28:55.271Z,60.00
2023-04-09T06:29:55.282Z,53.90
2023-04-09T06:30:55.321Z,57.30
2023-04-09T06:31:55.237Z,55.90
2023-04-09T06:32:55.623Z,50.80
2023-04-09T06:33:55.702Z,55.20
2023-04-09T06:34:55.234Z,55.60
2023-04-09T06:35:55.239Z,52.60
2023-04-09T06:36:55.176Z,53.40
2023-04-09T06:37:55.153Z,54.20
2023-04-09T06:38:55.178Z,54.90
2023-04-09T06:40:00.945Z,53.30
2023-04-09T06:40:55.112Z,55.00
2023-04-09T06:41:55.139Z,50.50
2023-04-09T06:42:55.098Z,55.90
2023-04-09T06:43:55.113Z,50.80
2023-04-09T06:44:55.093Z,54.40
2023-04-09T06:45:55.111Z,50.50
2023-04-09T06:46:55.104Z,47.70
2023-04-09T06:47:55.044Z,48.20
2023-04-09T06:48:55.012Z,48.10
2023-04-09T06:49:55.012Z,50.20
2023-04-09T06:50:55.003Z,50.70
2023-04-09T06:51:54.981Z,49.20
2023-04-09T06:52:54.953Z,49.10
2023-04-09T06:53:55.243Z,48.60
2023-04-09T06:54:54.947Z,46.90
2023-04-09T06:55:56.645Z,47.70
2023-04-09T06:56:54.915Z,47.60
2023-04-09T06:57:54.928Z,45.50
2023-04-09T06:58:54.881Z,47.10
2023-04-09T06:59:54.903Z,46.40
2023-04-09T07:00:54.848Z,46.50
2023-04-09T07:01:54.924Z,46.80
2023-04-09T07:02:54.961Z,46.30
2023-04-09T07:03:55.041Z,48.80
2023-04-09T07:04:54.818Z,46.30
2023-04-09T07:05:54.834Z,46.40
2023-04-09T07:06:54.780Z,48.90
2023-04-09T07:07:54.781Z,49.10
2023-04-09T07:08:55.009Z,49.80
2023-04-09T07:09:54.740Z,47.70
2023-04-09T07:10:54.735Z,48.80
2023-04-09T07:11:54.747Z,45.20
2023-04-09T07:12:54.712Z,45.20
2023-04-09T07:13:54.947Z,45.20
2023-04-09T07:14:54.675Z,46.20
2023-04-09T07:15:54.683Z,46.00
2023-04-09T07:16:54.659Z,46.50
2023-04-09T07:17:54.700Z,46.00
2023-04-09T07:18:54.613Z,47.50
2023-04-09T07:19:54.638Z,46.30
2023-04-09T07:20:54.593Z,47.70
2023-04-09T07:21:54.599Z,46.80
2023-04-09T07:22:54.582Z,48.20
2023-04-09T07:23:54.803Z,45.90
2023-04-09T07:24:54.557Z,44.40
2023-04-09T07:25:54.520Z,74.70
2023-04-09T07:26:54.543Z,46.20
2023-04-09T07:27:54.514Z,45.10
2023-04-09T07:28:54.499Z,47.10
2023-04-09T07:29:54.493Z,46.90
2023-04-09T07:30:54.470Z,45.90
2023-04-09T07:31:54.538Z,45.30
2023-04-09T07:32:54.543Z,44.60
2023-04-09T07:33:54.793Z,48.80
2023-04-09T07:34:54.451Z,47.60
2023-04-09T07:35:55.552Z,50.90
2023-04-09T07:36:54.386Z,45.00
2023-04-09T07:37:54.396Z,44.40
2023-04-09T07:38:54.737Z,45.10
2023-04-09T07:39:54.422Z,45.30
2023-04-09T07:40:54.342Z,43.20
2023-04-09T07:41:54.350Z,42.50
2023-04-09T07:42:54.304Z,45.90
2023-04-09T07:43:54.319Z,44.10
2023-04-09T07:44:54.278Z,45.20
2023-04-09T07:45:54.291Z,43.60
2023-04-09T07:46:54.315Z,45.90
2023-04-09T07:47:54.260Z,44.20
2023-04-09T07:48:54.617Z,43.40
2023-04-09T07:49:54.244Z,44.50
2023-04-09T07:50:54.229Z,44.50
2023-04-09T07:51:54.218Z,44.00
2023-04-09T07:52:54.389Z,42.50
2023-04-09T07:53:54.181Z,44.20
2023-04-09T07:54:54.184Z,46.40
2023-04-09T07:55:54.160Z,44.30
2023-04-09T07:56:54.125Z,44.60
2023-04-09T07:57:54.151Z,43.20
2023-04-09T07:58:54.271Z,42.10
2023-04-09T07:59:54.107Z,42.80
2023-04-09T08:00:54.080Z,42.50
2023-04-09T08:01:54.171Z,42.20
2023-04-09T08:02:54.272Z,43.00
2023-04-09T08:03:54.200Z,42.30
2023-04-09T08:04:54.208Z,42.50
2023-04-09T08:05:54.029Z,43.70
2023-04-09T08:06:54.041Z,43.90
2023-04-09T08:07:53.992Z,43.70
2023-04-09T08:08:54.340Z,43.80
2023-04-09T08:09:53.949Z,42.80
2023-04-09T08:10:53.970Z,44.70
2023-04-09T08:11:53.952Z,41.60
2023-04-09T08:12:53.927Z,42.50
2023-04-09T08:13:53.909Z,45.70
2023-04-09T08:14:53.888Z,45.00
2023-04-09T08:15:53.897Z,40.20
2023-04-09T08:16:53.945Z,40.30
2023-04-09T08:17:53.904Z,39.30
2023-04-09T08:18:53.945Z,40.30
2023-04-09T08:19:53.817Z,40.40
2023-04-09T08:20:53.834Z,40.30
2023-04-09T08:21:53.813Z,40.00
2023-04-09T08:22:53.917Z,39.20
2023-04-09T08:23:53.801Z,39.50
2023-04-09T08:24:53.787Z,40.10
2023-04-09T08:25:53.761Z,40.90
2023-04-09T08:26:53.747Z,37.60
2023-04-09T08:27:53.738Z,36.80
2023-04-09T08:28:54.018Z,38.10
2023-04-09T08:29:53.718Z,36.40
2023-04-09T08:30:53.690Z,36.50
2023-04-09T08:31:53.703Z,36.70
2023-04-09T08:32:53.696Z,36.40
2023-04-09T08:33:53.660Z,36.40
2023-04-09T08:34:53.634Z,36.30
2023-04-09T08:35:53.630Z,36.50
2023-04-09T08:36:53.667Z,35.50
2023-04-09T08:37:53.607Z,34.90
2023-04-09T08:38:53.666Z,34.70
2023-04-09T08:39:53.563Z,35.70
2023-04-09T08:40:53.580Z,35.00
2023-04-09T08:41:53.562Z,35.20
2023-04-09T08:42:53.523Z,36.00
2023-04-09T08:44:53.483Z,34.00
2023-04-09T08:45:53.517Z,33.80
2023-04-09T08:46:53.461Z,34.80
2023-04-09T08:47:53.498Z,34.00
2023-04-09T08:48:53.906Z,34.80
2023-04-09T08:49:53.427Z,34.40
2023-04-09T08:50:53.448Z,33.60
2023-04-09T08:51:53.413Z,33.40
2023-04-09T08:52:53.409Z,34.00
2023-04-09T08:53:53.396Z,33.90
2023-04-09T08:54:53.491Z,34.80
2023-04-09T08:55:53.338Z,32.50
2023-04-09T08:56:53.335Z,32.00
2023-04-09T08:57:53.343Z,30.30
2023-04-09T08:58:53.506Z,31.10
2023-04-09T08:59:53.291Z,32.80
2023-04-09T09:00:53.293Z,30.50
2023-04-09T09:01:53.304Z,31.40
2023-04-09T09:02:53.392Z,30.50
2023-04-09T09:03:53.325Z,29.50
2023-04-09T09:04:53.269Z,29.20
2023-04-09T09:05:53.208Z,29.30
2023-04-09T09:06:55.366Z,30.10
2023-04-09T09:07:53.209Z,27.50
2023-04-09T09:08:53.400Z,28.90
2023-04-09T09:09:53.172Z,27.10
2023-04-09T09:10:53.156Z,27.40
2023-04-09T09:11:53.159Z,28.20
2023-04-09T09:12:53.144Z,27.30
2023-04-09T09:13:53.161Z,26.30
2023-04-09T09:14:53.149Z,27.60
2023-04-09T09:15:53.087Z,27.50
2023-04-09T09:16:53.123Z,27.40
2023-04-09T09:17:53.119Z,26.90
2023-04-09T09:18:54.160Z,25.90
2023-04-09T09:19:53.031Z,25.00
2023-04-09T09:20:53.086Z,24.90
2023-04-09T09:21:53.012Z,24.90
2023-04-09T09:22:54.975Z,24.50
2023-04-09T09:23:53.012Z,25.00
2023-04-09T09:24:53.019Z,24.70
2023-04-09T09:25:53.029Z,24.50
2023-04-09T09:26:52.961Z,23.70
2023-04-09T09:27:52.970Z,24.90
2023-04-09T09:28:53.070Z,26.00
2023-04-09T09:29:52.900Z,25.60
2023-04-09T09:30:52.954Z,24.30
2023-04-09T09:31:52.918Z,26.30
2023-04-09T09:32:52.945Z,31.00
2023-04-09T09:33:52.872Z,29.50
2023-04-09T09:34:52.856Z,24.30
2023-04-09T09:35:52.855Z,24.40
2023-04-09T09:36:52.884Z,24.60
2023-04-09T09:37:52.873Z,24.50
2023-04-09T09:38:53.018Z,25.30
2023-04-09T09:39:52.798Z,24.90
2023-04-09T09:40:52.805Z,23.20
2023-04-09T09:41:52.737Z,23.80
2023-04-09T09:42:52.786Z,24.30
2023-04-09T09:43:52.747Z,23.70
2023-04-09T09:44:52.706Z,24.00
2023-04-09T09:45:52.791Z,23.10
2023-04-09T09:46:52.692Z,24.00
2023-04-09T09:47:52.749Z,23.20
2023-04-09T09:48:52.895Z,22.60
2023-04-09T09:49:52.719Z,22.80
2023-04-09T09:50:52.633Z,23.20
2023-04-09T09:51:52.636Z,23.00
2023-04-09T09:52:52.591Z,23.30
2023-04-09T09:53:52.603Z,23.90
2023-04-09T09:54:52.601Z,23.50
2023-04-09T09:55:52.578Z,22.90
2023-04-09T09:56:52.591Z,22.80
2023-04-09T09:57:52.543Z,22.60
2023-04-09T09:58:52.837Z,24.10
2023-04-09T09:59:52.517Z,24.20
2023-04-09T10:00:52.545Z,22.30
2023-04-09T10:01:52.628Z,23.80
2023-04-09T10:02:52.551Z,23.20
2023-04-09T10:03:52.455Z,23.30
2023-04-09T10:04:52.571Z,23.10
2023-04-09T10:05:52.442Z,23.90
2023-04-09T10:06:53.626Z,23.10
2023-04-09T10:07:52.421Z,22.40
2023-04-09T10:08:52.507Z,22.70
2023-04-09T10:09:52.379Z,22.10
2023-04-09T10:10:52.382Z,21.80
2023-04-09T10:11:52.377Z,21.70
2023-04-09T10:12:52.368Z,21.10
2023-04-09T10:13:53.890Z,21.10
2023-04-09T10:14:52.326Z,21.10
2023-04-09T10:15:52.356Z,20.50
2023-04-09T10:16:52.322Z,20.20
2023-04-09T10:17:52.327Z,19.90
2023-04-09T10:18:52.438Z,20.50
2023-04-09T10:19:52.248Z,21.60
2023-04-09T10:20:52.234Z,21.40
2023-04-09T10:21:52.232Z,22.80
2023-04-09T10:22:52.216Z,22.70
2023-04-09T10:23:52.190Z,23.30
2023-04-09T10:24:52.203Z,23.90
2023-04-09T10:25:52.156Z,24.50
2023-04-09T10:26:52.156Z,23.60
2023-04-09T10:27:52.153Z,24.30
2023-04-09T10:28:52.290Z,25.00
2023-04-09T10:29:52.111Z,25.20
2023-04-09T10:30:52.155Z,25.10
2023-04-09T10:31:52.101Z,24.70
2023-04-09T10:32:52.082Z,23.00
2023-04-09T10:33:52.059Z,22.20
2023-04-09T10:34:52.103Z,24.20
2023-04-09T10:35:52.064Z,23.40
2023-04-09T10:36:52.024Z,24.60
2023-04-09T10:37:52.031Z,23.90
2023-04-09T10:38:52.273Z,24.10
2023-04-09T10:39:51.999Z,24.60
2023-04-09T10:40:51.991Z,24.20
2023-04-09T10:41:51.953Z,23.70
2023-04-09T10:42:51.986Z,24.20
2023-04-09T10:43:51.947Z,24.50
2023-04-09T10:44:51.952Z,24.20
2023-04-09T10:45:51.911Z,24.60
2023-04-09T10:46:51.967Z,24.80
2023-04-09T10:47:51.920Z,25.60
2023-04-09T10:48:52.039Z,24.50
2023-04-09T10:49:51.869Z,24.70
2023-04-09T10:50:51.880Z,24.10
2023-04-09T10:51:51.902Z,23.50
2023-04-09T10:52:51.831Z,24.70
2023-04-09T10:53:51.840Z,24.90
2023-04-09T10:54:51.797Z,24.60
2023-04-09T10:55:51.809Z,23.90
2023-04-09T10:56:51.809Z,24.10
2023-04-09T10:57:51.767Z,24.80
2023-04-09T10:58:52.036Z,22.70
2023-04-09T10:59:51.776Z,23.90
2023-04-09T11:00:51.722Z,24.00
2023-04-09T11:01:51.791Z,25.70
2023-04-09T11:02:52.145Z,23.30
2023-04-09T11:03:51.740Z,23.50
2023-04-09T11:04:51.720Z,22.90
2023-04-09T11:05:51.730Z,23.40
2023-04-09T11:06:51.657Z,22.80
2023-04-09T11:07:51.626Z,23.00
2023-04-09T11:08:51.809Z,22.60
2023-04-09T11:09:51.627Z,23.10
2023-04-09T11:10:52.371Z,23.90
2023-04-09T11:11:51.657Z,21.90
2023-04-09T11:12:51.587Z,22.60
2023-04-09T11:13:51.553Z,23.20
2023-04-09T11:14:51.538Z,22.90
2023-04-09T11:15:51.589Z,21.00
2023-04-09T11:16:51.583Z,22.40
2023-04-09T11:17:51.599Z,22.60
2023-04-09T11:18:51.759Z,21.50
2023-04-09T11:19:51.511Z,22.00
2023-04-09T11:20:51.476Z,22.20
2023-04-09T11:21:51.499Z,22.70
2023-04-09T11:22:51.546Z,20.40
2023-04-09T11:23:51.432Z,21.90
2023-04-09T11:24:51.489Z,22.00
2023-04-09T11:25:51.391Z,21.20
2023-04-09T11:26:51.423Z,22.00
2023-04-09T11:27:51.375Z,20.90
2023-04-09T11:28:51.636Z,21.00
2023-04-09T11:29:51.353Z,20.50
2023-04-09T11:30:51.514Z,20.60
2023-04-09T11:31:51.596Z,20.80
2023-04-09T11:32:51.403Z,20.20
2023-04-09T11:33:51.280Z,20.00
2023-04-09T11:34:51.392Z,20.50
2023-04-09T11:35:51.334Z,20.20
2023-04-09T11:36:51.261Z,20.70
2023-04-09T11:37:51.228Z,20.20
2023-04-09T11:38:51.408Z,20.20
2023-04-09T11:39:51.207Z,20.70
2023-04-09T11:40:51.221Z,19.30
2023-04-09T11:41:51.184Z,19.60
2023-04-09T11:42:51.166Z,21.00
2023-04-09T11:43:51.179Z,19.80
2023-04-09T11:44:51.199Z,19.20
2023-04-09T11:45:51.122Z,19.50
2023-04-09T11:46:51.195Z,19.20
2023-04-09T11:47:51.156Z,19.10
2023-04-09T11:48:51.273Z,18.60
2023-04-09T11:49:51.106Z,19.20
2023-04-09T11:50:51.104Z,19.70
2023-04-09T11:51:51.041Z,20.10
2023-04-09T11:52:51.051Z,19.80
2023-04-09T11:53:51.037Z,19.40
2023-04-09T11:54:51.023Z,19.40
2023-04-09T11:55:51.015Z,19.80
2023-04-09T11:56:51.010Z,18.30
2023-04-09T11:57:51.027Z,19.60
2023-04-09T11:58:51.163Z,19.40
2023-04-09T11:59:50.956Z,19.70
2023-04-09T12:00:50.962Z,17.90
2023-04-09T12:01:51.060Z,18.20
2023-04-09T12:02:51.231Z,18.30
2023-04-09T12:03:50.971Z,18.50
2023-04-09T12:04:51.177Z,18.80
2023-04-09T12:05:51.383Z,18.30
2023-04-09T12:06:50.860Z,18.10
2023-04-09T12:07:56.401Z,18.10
2023-04-09T12:08:51.004Z,17.90
2023-04-09T12:09:50.846Z,18.20
2023-04-09T12:10:53.080Z,18.00
2023-04-09T12:11:50.804Z,17.50
2023-04-09T12:12:50.807Z,17.60
2023-04-09T12:13:50.775Z,17.00
2023-04-09T12:14:50.835Z,17.80
2023-04-09T12:15:50.766Z,18.40
2023-04-09T12:16:50.793Z,17.30
2023-04-09T12:17:50.808Z,17.30
2023-04-09T12:18:50.857Z,17.30
2023-04-09T12:19:50.733Z,17.40
2023-04-09T12:20:50.706Z,16.60
2023-04-09T12:21:50.661Z,16.90
2023-04-09T12:22:50.658Z,17.40
2023-04-09T12:23:50.661Z,18.30
2023-04-09T12:24:50.648Z,18.90
2023-04-09T12:25:50.644Z,18.40
2023-04-09T12:26:50.617Z,17.90
2023-04-09T12:27:50.618Z,17.30
2023-04-09T12:28:50.778Z,18.80
2023-04-09T12:29:50.558Z,17.20
2023-04-09T12:30:50.590Z,18.80
2023-04-09T12:31:50.602Z,17.20
2023-04-09T12:32:50.588Z,17.50
2023-04-09T12:33:50.516Z,17.50
2023-04-09T12:34:50.495Z,16.30
2023-04-09T12:35:50.539Z,17.10
2023-04-09T12:36:50.516Z,17.70
2023-04-09T12:37:50.450Z,16.60
2023-04-09T12:38:50.613Z,17.30
2023-04-09T12:39:50.449Z,18.40
2023-04-09T12:40:50.422Z,14.90
2023-04-09T12:41:50.432Z,16.60
2023-04-09T12:42:50.434Z,16.50
2023-04-09T12:43:50.494Z,15.00
2023-04-09T12:44:50.399Z,15.90
2023-04-09T12:45:53.122Z,16.30
2023-04-09T12:46:50.375Z,16.20
2023-04-09T12:47:50.392Z,16.40
2023-04-09T12:48:50.325Z,15.10
2023-04-09T12:49:50.331Z,16.10
2023-04-09T12:50:50.398Z,16.00
2023-04-09T12:51:50.295Z,15.10
2023-04-09T12:52:50.287Z,14.80